Time;durP1;ratioP1;P1;durP2;ratioP2;P2;SDS_P1;SDS_P2;PMS_P1;PMS_P2;Temp;Humidity;BMP_temperature;BMP_pressure;BME280_temperature;BME280_humidity;BME280_pressure;Samples;Min_cycle;Max_cycle;Signal;HPM_P1;HPM_P2
2023/01/19 00:00:26;;;;;;;15.73;7.97;;;;;;;1.26;100.00;100002.84;6192700;23;20025;-74
2023/01/19 00:02:53;;;;;;;12.20;7.40;;;;;;;1.27;100.00;100012.19;6218919;23;20019;-73
2023/01/19 00:05:20;;;;;;;14.38;8.02;;;;;;;1.30;100.00;100016.66;6192639;23;20075;-73
2023/01/19 00:07:47;;;;;;;13.23;7.70;;;;;;;1.32;100.00;100014.38;6219534;23;20431;-73
2023/01/19 00:10:13;;;;;;;15.88;7.97;;;;;;;1.32;100.00;100014.38;6218585;23;20021;-73
2023/01/19 00:12:40;;;;;;;11.95;7.22;;;;;;;1.33;100.00;100014.00;6219535;23;20076;-73
2023/01/19 00:15:07;;;;;;;12.48;7.97;;;;;;;1.36;100.00;100009.84;6218860;23;20017;-73
2023/01/19 00:17:34;;;;;;;13.27;7.78;;;;;;;1.37;100.00;100002.72;6219777;23;20047;-73
2023/01/19 00:20:00;;;;;;;15.00;7.85;;;;;;;1.37;100.00;100000.84;6218800;23;20021;-73
2023/01/19 00:22:27;;;;;;;13.55;8.68;;;;;;;1.39;100.00;99997.84;6220002;23;20045;-73
2023/01/19 00:24:53;;;;;;;13.90;8.85;;;;;;;1.40;100.00;100007.94;6218829;23;20120;-75
2023/01/19 00:27:20;;;;;;;13.73;8.70;;;;;;;1.40;100.00;100021.03;6219160;23;20728;-75
2023/01/19 00:29:46;;;;;;;13.80;8.25;;;;;;;1.42;100.00;100021.41;6219840;23;20068;-75
2023/01/19 00:32:13;;;;;;;3.67;3.42;;;;;;;1.39;100.00;100026.69;6219157;23;20024;-75
2023/01/19 00:34:48;;;;;;;3.22;2.92;;;;;;;1.32;100.00;100017.75;6219445;23;20013;-75
2023/01/19 00:37:16;;;;;;;3.38;2.97;;;;;;;1.28;100.00;100029.41;6219027;23;20033;-75
2023/01/19 00:39:42;;;;;;;4.60;2.60;;;;;;;1.21;100.00;100026.88;6218981;23;20017;-76
2023/01/19 00:44:57;;;;;;;5.05;2.83;;;;;;;1.15;100.00;100010.88;6218790;23;20545;-74
2023/01/19 00:47:24;;;;;;;4.65;3.80;;;;;;;1.16;100.00;100016.84;6192298;23;20017;-74
2023/01/19 00:49:51;;;;;;;6.45;4.18;;;;;;;1.15;100.00;100016.09;6218397;23;20043;-73
2023/01/19 00:52:17;;;;;;;9.23;5.13;;;;;;;1.18;100.00;100007.47;6218355;23;20013;-73
2023/01/19 00:54:44;;;;;;;8.15;6.78;;;;;;;1.22;100.00;100007.38;6219406;23;20017;-73
2023/01/19 00:57:11;;;;;;;15.48;7.65;;;;;;;1.24;100.00;100013.72;6218519;23;20017;-73
2023/01/19 00:59:37;;;;;;;14.88;7.32;;;;;;;1.27;100.00;100007.69;6219131;23;20028;-73
2023/01/19 01:02:04;;;;;;;13.85;6.97;;;;;;;1.29;100.00;99999.44;6218318;23;20013;-73
2023/01/19 01:04:31;;;;;;;7.30;6.40;;;;;;;1.29;100.00;100007.31;6192159;23;20028;-73
2023/01/19 01:06:57;;;;;;;11.10;7.45;;;;;;;1.32;100.00;100006.53;6217927;23;20039;-73
2023/01/19 01:09:24;;;;;;;10.27;7.50;;;;;;;1.32;100.00;100002.03;6192084;23;20025;-73
2023/01/19 01:11:50;;;;;;;9.98;6.20;;;;;;;1.33;100.00;99997.53;6218836;23;20013;-73
2023/01/19 01:14:18;;;;;;;9.57;7.50;;;;;;;1.31;100.00;99994.56;6192288;23;20013;-74
2023/01/19 01:16:44;;;;;;;7.80;5.93;;;;;;;1.27;100.00;99997.22;6219893;23;20103;-73
2023/01/19 01:19:11;;;;;;;8.88;7.50;;;;;;;1.26;100.00;100000.22;6193075;23;20029;-73
2023/01/19 01:21:37;;;;;;;13.98;7.57;;;;;;;1.25;100.00;100011.84;6219884;23;20021;-73
2023/01/19 01:24:04;;;;;;;8.30;6.40;;;;;;;1.20;100.00;99997.28;6219387;23;20320;-74
2023/01/19 01:26:30;;;;;;;6.70;5.53;;;;;;;1.14;100.00;99998.88;6220404;23;20013;-73
2023/01/19 01:28:57;;;;;;;6.75;4.55;;;;;;;1.09;100.00;100001.94;6220107;23;20468;-73
2023/01/19 01:31:24;;;;;;;7.35;4.50;;;;;;;1.07;100.00;100004.22;6219990;23;20013;-73
2023/01/19 01:33:51;;;;;;;5.80;4.35;;;;;;;1.05;100.00;100003.84;6220064;23;20017;-73
2023/01/19 01:36:20;;;;;;;5.95;4.35;;;;;;;1.04;100.00;100012.84;6219389;23;20435;-73
2023/01/19 01:38:47;;;;;;;4.38;3.60;;;;;;;1.02;100.00;100009.88;6220578;23;20380;-75
2023/01/19 01:41:13;;;;;;;5.90;3.47;;;;;;;1.04;100.00;100014.72;6220153;23;20024;-73
2023/01/19 01:43:49;;;;;;;3.25;2.70;;;;;;;1.05;100.00;100016.22;6220421;23;20087;-73
2023/01/19 01:46:16;;;;;;;2.78;2.35;;;;;;;1.08;100.00;100018.81;6220132;23;20021;-73
2023/01/19 01:48:49;;;;;;;3.40;2.60;;;;;;;1.09;100.00;100009.81;6219647;23;20017;-73
2023/01/19 01:51:25;;;;;;;2.85;2.58;;;;;;;1.13;100.00;100025.50;6219116;23;20017;-73
2023/01/19 01:54:05;;;;;;;2.15;2.03;;;;;;;1.15;100.00;100012.75;6220068;23;20023;-75
2023/01/19 01:56:36;;;;;;;2.05;1.92;;;;;;;1.18;100.00;100017.19;6220519;23;20021;-77
2023/01/19 01:59:08;;;;;;;4.68;1.98;;;;;;;1.21;100.00;100013.78;6219550;23;20021;-75
2023/01/19 02:04:22;;;;;;;2.35;1.73;;;;;;;1.30;100.00;100014.03;6193083;23;20052;-75
2023/01/19 02:15:17;;;;;;;1.52;1.42;;;;;;;1.39;100.00;100031.94;6218251;23;20014;-73
2023/01/19 02:17:45;;;;;;;1.23;1.20;;;;;;;1.40;100.00;100028.16;6220210;23;20013;-73
2023/01/19 02:20:12;;;;;;;1.83;1.67;;;;;;;1.40;100.00;100034.16;6218227;23;20522;-73
2023/01/19 02:22:50;;;;;;;1.55;1.45;;;;;;;1.42;100.00;100034.50;6219470;23;20391;-73
2023/01/19 02:25:18;;;;;;;2.10;1.33;;;;;;;1.43;100.00;100030.00;6219945;23;20076;-73
2023/01/19 02:27:44;;;;;;;2.03;1.10;;;;;;;1.45;100.00;100028.47;6219611;23;20478;-73
2023/01/19 02:30:12;;;;;;;2.00;1.00;;;;;;;1.50;100.00;100035.16;6219373;23;20371;-73
2023/01/19 02:32:39;;;;;;;0.80;0.80;;;;;;;1.53;100.00;100032.50;6220291;23;20435;-73
2023/01/19 02:35:06;;;;;;;0.65;0.45;;;;;;;1.59;100.00;100025.69;6218736;23;20013;-73
2023/01/19 02:37:38;;;;;;;3.13;0.60;;;;;;;1.65;100.00;100042.44;6220112;23;20020;-75
2023/01/19 02:40:12;;;;;;;5.03;0.70;;;;;;;1.70;100.00;100054.38;6219552;23;20017;-75
2023/01/19 02:42:47;;;;;;;2.88;0.60;;;;;;;1.75;100.00;100063.69;6220110;23;20048;-75
2023/01/19 02:45:19;;;;;;;2.25;0.93;;;;;;;1.76;100.00;100062.56;6219883;23;20414;-75
2023/01/19 02:47:48;;;;;;;3.97;0.77;;;;;;;1.78;100.00;100063.66;6220248;23;20017;-75
2023/01/19 02:50:32;;;;;;;1.67;0.57;;;;;;;1.78;100.00;100071.53;6218785;23;20420;-75
2023/01/19 02:53:13;;;;;;;2.47;0.60;;;;;;;1.80;100.00;100076.38;6193095;23;20024;-74
2023/01/19 02:55:43;;;;;;;4.43;0.35;;;;;;;1.79;100.00;100080.16;6220157;23;20024;-74
2023/01/19 02:58:50;;;;;;;3.28;0.40;;;;;;;1.79;100.00;100075.63;6219195;23;20324;-74
2023/01/19 03:01:32;;;;;;;0.82;0.47;;;;;;;1.80;100.00;100076.38;6133492;23;20028;-74
2023/01/19 03:04:06;;;;;;;0.80;0.45;;;;;;;1.80;100.00;100079.00;6219163;23;20024;-74
2023/01/19 03:06:49;;;;;;;4.53;0.90;;;;;;;1.80;100.00;100081.63;6220049;23;20023;-74
2023/01/19 03:09:29;;;;;;;2.20;0.40;;;;;;;1.81;100.00;100091.00;6192891;23;20027;-74
2023/01/19 03:12:07;;;;;;;0.88;0.50;;;;;;;1.82;100.00;100100.34;6192452;23;20475;-74
2023/01/19 03:14:41;;;;;;;2.05;0.47;;;;;;;1.84;100.00;100095.44;6219861;23;20013;-74
2023/01/19 03:17:10;;;;;;;1.77;0.50;;;;;;;1.86;100.00;100098.44;6219527;23;20023;-74
2023/01/19 03:19:40;;;;;;;0.65;0.25;;;;;;;1.88;100.00;100086.41;6219419;23;20013;-74
2023/01/19 03:22:18;;;;;;;0.70;0.40;;;;;;;1.87;100.00;100076.28;6219011;23;20076;-74
2023/01/19 03:24:46;;;;;;;0.45;0.38;;;;;;;1.87;100.00;100086.78;6219927;23;20048;-74
2023/01/19 03:27:19;;;;;;;3.10;0.43;;;;;;;1.90;100.00;100088.63;6219650;23;20458;-74
2023/01/19 03:29:52;;;;;;;0.77;0.32;;;;;;;1.90;100.00;100102.50;6219876;23;20013;-74
2023/01/19 03:32:28;;;;;;;1.23;0.40;;;;;;;1.90;100.00;100097.25;6219040;23;20469;-74
2023/01/19 03:34:59;;;;;;;2.75;0.32;;;;;;;1.91;100.00;100103.25;6219712;23;20013;-74
2023/01/19 03:37:30;;;;;;;1.27;0.45;;;;;;;1.88;100.00;100094.28;6220316;23;20013;-74
2023/01/19 03:39:57;;;;;;;5.37;0.47;;;;;;;1.88;100.00;100102.16;6219018;23;20017;-74
2023/01/19 03:42:24;;;;;;;1.77;0.60;;;;;;;1.87;100.00;100105.16;6192850;23;20079;-74
2023/01/19 03:44:55;;;;;;;1.05;0.47;;;;;;;1.85;100.00;100102.19;6219212;23;20080;-74
2023/01/19 03:47:22;;;;;;;2.25;0.22;;;;;;;1.84;100.00;100106.69;6218687;23;20096;-74
2023/01/19 03:49:51;;;;;;;1.13;0.35;;;;;;;1.82;100.00;100111.59;6218888;23;20021;-75
2023/01/19 03:52:26;;;;;;;3.72;0.32;;;;;;;1.80;100.00;100106.00;6219329;23;20444;-74
2023/01/19 03:54:53;;;;;;;0.88;0.30;;;;;;;1.78;100.00;100115.41;6219518;23;20017;-74
2023/01/19 03:57:19;;;;;;;0.20;0.20;;;;;;;1.77;100.00;100116.53;6192217;23;20439;-74
2023/01/19 03:59:46;;;;;;;0.35;0.30;;;;;;;1.75;100.00;100119.56;6167926;23;20455;-74
2023/01/19 04:02:13;;;;;;;3.28;0.60;;;;;;;1.71;100.00;100136.47;6218396;23;20017;-74
2023/01/19 04:04:40;;;;;;;1.10;0.40;;;;;;;1.67;100.00;100137.25;6219421;23;20036;-74
2023/01/19 04:07:08;;;;;;;1.27;0.57;;;;;;;1.63;100.00;100141.06;6218720;23;20024;-75
2023/01/19 04:09:35;;;;;;;1.85;0.35;;;;;;;1.57;100.00;100143.38;6219893;23;20395;-74
2023/01/19 04:12:02;;;;;;;2.22;0.68;;;;;;;1.54;100.00;100135.56;6218763;23;20028;-74
2023/01/19 04:14:29;;;;;;;2.55;0.40;;;;;;;1.51;100.00;100128.47;6219735;23;20084;-75
2023/01/19 04:16:55;;;;;;;8.88;0.68;;;;;;;1.46;100.00;100137.50;6218499;23;20013;-74
2023/01/19 04:19:22;;;;;;;3.40;0.50;;;;;;;1.41;100.00;100130.06;6219319;23;20435;-74
2023/01/19 04:21:49;;;;;;;1.13;0.32;;;;;;;1.38;100.00;100133.47;6219529;23;20028;-75
2023/01/19 04:24:16;;;;;;;1.00;0.40;;;;;;;1.35;100.00;100131.63;6219504;23;20024;-75
2023/01/19 04:26:43;;;;;;;1.08;0.28;;;;;;;1.34;100.00;100130.13;6219572;23;20509;-74
2023/01/19 04:29:10;;;;;;;4.45;0.43;;;;;;;1.31;100.00;100128.28;6218908;23;20495;-74
2023/01/19 04:31:36;;;;;;;2.85;0.73;;;;;;;1.27;100.00;100128.31;6219094;23;20017;-75
2023/01/19 04:34:03;;;;;;;0.35;0.35;;;;;;;1.25;100.00;100127.22;6218768;23;20067;-75
2023/01/19 04:36:30;;;;;;;1.02;0.47;;;;;;;1.23;100.00;100132.13;6219514;23;20015;-74
2023/01/19 04:38:56;;;;;;;1.55;0.63;;;;;;;1.22;100.00;100135.88;6219229;23;20017;-74
2023/01/19 04:41:23;;;;;;;0.43;0.17;;;;;;;1.20;100.00;100138.88;6219207;23;20022;-74
2023/01/19 04:43:49;;;;;;;3.13;0.35;;;;;;;1.19;100.00;100139.28;6192086;23;20083;-74
2023/01/19 04:46:16;;;;;;;1.77;0.82;;;;;;;1.19;100.00;100144.53;6218401;23;20598;-74
2023/01/19 04:48:42;;;;;;;2.88;0.98;;;;;;;1.17;100.00;100152.06;6218848;22;20109;-73
2023/01/19 04:51:09;;;;;;;2.28;0.73;;;;;;;1.15;100.00;100151.69;6219379;23;20028;-74
2023/01/19 04:53:35;;;;;;;3.47;0.57;;;;;;;1.14;100.00;100152.81;6220680;23;20071;-74
2023/01/19 04:56:02;;;;;;;5.20;0.40;;;;;;;1.14;100.00;100156.19;6219928;23;20009;-73
2023/01/19 04:58:28;;;;;;;2.00;0.70;;;;;;;1.13;100.00;100161.81;6220646;23;20033;-73
2023/01/19 05:00:55;;;;;;;1.23;0.50;;;;;;;1.11;100.00;100170.06;6219471;23;20467;-73
2023/01/19 05:03:21;;;;;;;3.40;0.73;;;;;;;1.11;100.00;100161.47;6220260;23;20430;-74
2023/01/19 05:05:50;;;;;;;1.73;0.55;;;;;;;1.10;100.00;100170.47;6220052;23;20021;-73
2023/01/19 05:08:17;;;;;;;2.20;0.63;;;;;;;1.10;100.00;100178.31;6193486;23;20013;-74
2023/01/19 05:10:43;;;;;;;1.40;1.33;;;;;;;1.10;100.00;100181.69;6220062;23;20096;-73
2023/01/19 05:13:10;;;;;;;3.67;0.70;;;;;;;1.11;100.00;100190.31;6219927;23;20017;-74
2023/01/19 05:15:36;;;;;;;7.05;0.60;;;;;;;1.09;100.00;100182.81;6220086;23;20439;-74
2023/01/19 05:18:03;;;;;;;3.17;0.70;;;;;;;1.11;100.00;100192.94;6219692;23;20017;-74
2023/01/19 05:20:29;;;;;;;0.55;0.32;;;;;;;1.10;100.00;100192.19;6220493;23;20017;-74
2023/01/19 05:22:56;;;;;;;11.68;1.10;;;;;;;1.13;100.00;100191.41;6220154;23;20013;-74
2023/01/19 05:25:23;;;;;;;3.92;0.60;;;;;;;1.16;100.00;100189.88;6220199;23;20017;-74
2023/01/19 05:27:50;;;;;;;2.85;0.43;;;;;;;1.18;100.00;100190.25;6219483;23;20809;-73
2023/01/19 05:30:17;;;;;;;4.32;0.80;;;;;;;1.18;100.00;100192.88;6220115;23;20021;-74
2023/01/19 05:32:43;;;;;;;5.15;1.10;;;;;;;1.18;100.00;100193.63;6220290;23;20404;-73
2023/01/19 05:35:10;;;;;;;4.25;0.60;;;;;;;1.21;100.00;100189.44;6219660;23;20013;-74
2023/01/19 05:37:36;;;;;;;3.65;0.60;;;;;;;1.22;100.00;100202.16;6193341;23;20025;-73
2023/01/19 05:40:03;;;;;;;10.52;1.23;;;;;;;1.24;100.00;100201.78;6219471;23;20025;-74
2023/01/19 05:42:30;;;;;;;12.05;1.77;;;;;;;1.25;100.00;100203.28;6219777;23;20017;-73
2023/01/19 05:44:58;;;;;;;2.55;0.90;;;;;;;1.26;100.00;100207.38;6219932;23;20017;-74
2023/01/19 05:47:24;;;;;;;8.02;0.80;;;;;;;1.27;100.00;100214.13;6219835;23;20145;-73
2023/01/19 05:49:51;;;;;;;5.05;1.15;;;;;;;1.29;100.00;100238.06;6219658;22;20025;-74
2023/01/19 05:52:18;;;;;;;11.18;0.95;;;;;;;1.32;100.00;100224.19;6219852;23;20072;-75
2023/01/19 05:54:47;;;;;;;2.55;1.35;;;;;;;1.34;100.00;100225.28;6194160;23;20037;-75
2023/01/19 05:57:13;;;;;;;3.72;0.80;;;;;;;1.36;100.00;100227.53;6219297;23;20092;-74
2023/01/19 05:59:40;;;;;;;6.55;0.95;;;;;;;1.38;100.00;100227.13;6220333;23;20017;-73
2023/01/19 06:02:07;;;;;;;5.45;1.17;;;;;;;1.37;100.00;100225.66;6218939;23;20013;-74
2023/01/19 06:04:34;;;;;;;1.98;0.40;;;;;;;1.36;100.00;100224.91;6219827;23;20024;-73
2023/01/19 06:07:01;;;;;;;6.47;0.80;;;;;;;1.36;100.00;100226.78;6219220;23;20017;-74
2023/01/19 06:09:28;;;;;;;4.80;0.80;;;;;;;1.34;100.00;100227.16;6220445;23;20104;-74
2023/01/19 06:11:56;;;;;;;3.65;0.93;;;;;;;1.31;100.00;100228.69;6219231;23;20091;-73
2023/01/19 06:14:23;;;;;;;6.57;0.77;;;;;;;1.30;100.00;100229.81;6219894;23;20017;-73
2023/01/19 06:16:50;;;;;;;5.70;1.45;;;;;;;1.30;100.00;100242.19;6219817;23;20017;-73
2023/01/19 06:19:16;;;;;;;4.40;1.45;;;;;;;1.28;100.00;100239.94;6219730;23;20119;-75
2023/01/19 06:21:48;;;;;;;10.55;1.55;;;;;;;1.29;100.00;100251.19;6220119;23;20414;-75
2023/01/19 06:24:15;;;;;;;6.40;0.77;;;;;;;1.32;100.00;100260.91;6219526;23;20013;-75
2023/01/19 06:26:42;;;;;;;5.75;1.55;;;;;;;1.35;100.00;100265.38;6219249;23;20028;-75
2023/01/19 06:29:10;;;;;;;3.70;1.60;;;;;;;1.38;100.00;100264.59;6219344;23;20017;-75
2023/01/19 06:31:37;;;;;;;5.13;1.60;;;;;;;1.40;100.00;100274.72;6220069;23;20506;-75
2023/01/19 06:34:03;;;;;;;5.28;1.00;;;;;;;1.41;100.00;100273.59;6219492;23;20344;-75
2023/01/19 06:36:30;;;;;;;9.13;1.10;;;;;;;1.43;100.00;100279.19;6220090;23;20432;-75
2023/01/19 06:38:58;;;;;;;3.58;1.30;;;;;;;1.45;100.00;100297.91;6219739;23;20509;-74
2023/01/19 06:41:24;;;;;;;7.50;0.88;;;;;;;1.46;100.00;100299.41;6219006;23;20021;-74
2023/01/19 06:43:51;;;;;;;13.13;1.60;;;;;;;1.47;100.00;100300.88;6219510;23;20017;-75
2023/01/19 06:46:17;;;;;;;12.10;1.73;;;;;;;1.48;100.00;100292.63;6219297;23;20028;-74
2023/01/19 06:48:44;;;;;;;9.88;1.65;;;;;;;1.50;100.00;100303.47;6218991;22;20096;-74
2023/01/19 06:51:10;;;;;;;6.30;1.77;;;;;;;1.50;100.00;100303.47;6218844;23;20017;-74
2023/01/19 06:53:37;;;;;;;9.40;1.52;;;;;;;1.50;100.00;100302.75;6193384;23;20024;-75
2023/01/19 06:56:05;;;;;;;8.68;1.02;;;;;;;1.49;100.00;100301.25;6218438;23;20019;-74
2023/01/19 06:58:33;;;;;;;5.78;1.40;;;;;;;1.48;100.00;100310.25;6193243;23;20088;-74
2023/01/19 07:01:04;;;;;;;2.53;1.13;;;;;;;1.47;100.00;100300.88;6219083;23;20529;-75
2023/01/19 07:03:32;;;;;;;4.65;1.73;;;;;;;1.47;100.00;100314.00;6219133;23;20017;-75
2023/01/19 07:06:01;;;;;;;7.70;1.48;;;;;;;1.45;100.00;100317.00;6219071;23;20100;-75
2023/01/19 07:08:28;;;;;;;4.78;1.05;;;;;;;1.44;100.00;100322.66;6219808;23;20527;-74
2023/01/19 07:11:04;;;;;;;8.35;2.03;;;;;;;1.41;100.00;100328.66;6218974;23;20012;-74
2023/01/19 07:13:54;;;;;;;4.72;1.42;;;;;;;1.37;100.00;100328.69;6220040;23;20013;-76
2023/01/19 07:16:20;;;;;;;6.70;1.67;;;;;;;1.33;100.00;100327.97;6220190;23;20012;-76
2023/01/19 07:18:47;;;;;;;3.63;1.35;;;;;;;1.28;100.00;100331.00;6220466;23;20017;-74
2023/01/19 07:21:14;;;;;;;9.15;2.17;;;;;;;1.23;100.00;100340.00;6219569;23;20013;-74
2023/01/19 07:23:42;;;;;;;7.38;2.45;;;;;;;1.19;100.00;100341.94;6219149;23;20017;-75
2023/01/19 07:26:09;;;;;;;13.80;3.50;;;;;;;1.16;100.00;100349.81;6218683;23;20511;-75
2023/01/19 07:28:36;;;;;;;15.70;4.35;;;;;;;1.13;100.00;100355.84;6219122;23;20084;-75
2023/01/19 07:31:02;;;;;;;8.82;2.85;;;;;;;1.09;100.00;100355.09;6219697;23;20063;-76
2023/01/19 07:33:29;;;;;;;11.25;3.38;;;;;;;1.07;100.00;100365.22;6193467;23;20017;-75
2023/01/19 07:35:56;;;;;;;8.57;2.30;;;;;;;1.06;100.00;100361.84;6219549;23;20433;-75
2023/01/19 07:38:22;;;;;;;10.25;2.22;;;;;;;1.08;100.00;100371.97;6192767;23;20501;-75
2023/01/19 07:40:49;;;;;;;8.68;2.00;;;;;;;1.07;100.00;100376.47;6219834;23;20017;-75
2023/01/19 07:43:16;;;;;;;6.82;1.95;;;;;;;1.08;100.00;100375.31;6220274;23;20021;-76
2023/01/19 07:45:43;;;;;;;14.05;2.05;;;;;;;1.08;100.00;100371.97;6193126;23;20387;-76
2023/01/19 07:48:10;;;;;;;12.23;2.80;;;;;;;1.09;100.00;100376.06;6193238;23;20477;-75
2023/01/19 07:50:36;;;;;;;11.70;4.78;;;;;;;1.13;100.00;100387.28;6220197;23;20097;-76
2023/01/19 07:53:05;;;;;;;12.45;5.18;;;;;;;1.15;100.00;100387.66;6219244;23;20017;-76
2023/01/19 07:55:32;;;;;;;8.68;3.88;;;;;;;1.16;100.00;100387.28;6219957;23;20391;-75
2023/01/19 07:57:58;;;;;;;7.28;3.08;;;;;;;1.18;100.00;100400.00;6219525;23;20028;-75
2023/01/19 08:00:25;;;;;;;10.43;2.55;;;;;;;1.15;100.00;100400.75;6168456;23;20017;-76
2023/01/19 08:02:52;;;;;;;6.50;3.00;;;;;;;1.14;100.00;100405.25;6193009;23;20470;-75
2023/01/19 08:05:19;;;;;;;5.15;2.47;;;;;;;1.11;100.00;100403.41;6220179;23;20017;-75
2023/01/19 08:07:47;;;;;;;5.82;2.15;;;;;;;1.08;100.00;100416.53;6219682;23;20482;-75
2023/01/19 08:10:15;;;;;;;5.85;2.50;;;;;;;1.07;100.00;100420.28;6220364;23;20713;-76
2023/01/19 08:12:42;;;;;;;11.98;2.15;;;;;;;1.05;100.00;100419.91;6220250;23;20329;-75
2023/01/19 08:15:10;;;;;;;12.60;2.67;;;;;;;1.03;100.00;100424.78;6219967;23;20128;-75
2023/01/19 08:17:36;;;;;;;11.73;2.38;;;;;;;1.02;100.00;100431.16;6220011;23;20025;-75
2023/01/19 08:20:03;;;;;;;5.18;2.15;;;;;;;1.02;100.00;100439.03;6219689;23;20013;-74
2023/01/19 08:22:30;;;;;;;5.10;1.92;;;;;;;1.02;100.00;100434.53;6219725;23;20020;-75
2023/01/19 08:24:56;;;;;;;5.20;1.95;;;;;;;1.03;100.00;100435.28;6219216;23;20017;-75
2023/01/19 08:27:23;;;;;;;10.88;2.00;;;;;;;1.02;100.00;100437.16;6219877;23;20095;-75
2023/01/19 08:29:49;;;;;;;9.82;2.47;;;;;;;0.99;100.00;100448.38;6219598;23;20484;-75
2023/01/19 08:32:16;;;;;;;12.50;2.45;;;;;;;0.98;100.00;100449.53;6220070;23;20013;-75
2023/01/19 08:34:42;;;;;;;4.78;2.53;;;;;;;0.96;100.00;100449.91;6219555;23;20080;-75
2023/01/19 08:37:09;;;;;;;8.93;2.30;;;;;;;1.00;100.00;100447.25;6218851;23;20024;-75
2023/01/19 08:39:36;;;;;;;5.88;1.98;;;;;;;0.99;100.00;100456.25;6192947;23;20023;-74
2023/01/19 08:42:02;;;;;;;5.53;2.30;;;;;;;1.04;100.00;100457.75;6219385;23;20465;-75
2023/01/19 08:44:29;;;;;;;4.93;2.80;;;;;;;1.06;100.00;100461.47;6218446;23;20032;-75
2023/01/19 08:46:55;;;;;;;5.63;2.47;;;;;;;1.08;100.00;100468.97;6219061;23;20049;-75
2023/01/19 08:49:22;;;;;;;9.25;2.33;;;;;;;1.12;100.00;100470.44;6219422;22;20021;-75
2023/01/19 08:51:48;;;;;;;10.48;2.30;;;;;;;1.17;100.00;100464.81;6218732;23;20017;-75
2023/01/19 08:54:15;;;;;;;10.20;3.55;;;;;;;1.24;100.00;100471.88;6219580;23;20021;-75
2023/01/19 08:56:44;;;;;;;20.15;3.72;;;;;;;1.32;100.00;100468.09;6219447;23;20510;-75
2023/01/19 08:59:10;;;;;;;11.48;2.58;;;;;;;1.36;100.00;100481.94;6218853;23;20097;-75
2023/01/19 09:01:40;;;;;;;6.63;1.85;;;;;;;1.41;100.00;100484.16;6219471;23;20436;-74
2023/01/19 09:04:06;;;;;;;3.65;1.63;;;;;;;1.47;100.00;100487.88;6218783;23;20024;-75
2023/01/19 09:06:33;;;;;;;7.57;2.35;;;;;;;1.52;100.00;100489.38;6218771;23;20032;-75
2023/01/19 09:08:59;;;;;;;6.22;2.17;;;;;;;1.56;100.00;100490.84;6218920;23;20017;-74
2023/01/19 09:11:26;;;;;;;4.80;1.63;;;;;;;1.62;100.00;100489.28;6219397;23;20013;-75
2023/01/19 09:13:53;;;;;;;7.25;1.80;;;;;;;1.70;100.00;100490.00;6218744;23;20019;-75
2023/01/19 09:16:19;;;;;;;14.32;1.70;;;;;;;1.75;100.00;100483.59;6192088;23;20017;-75
2023/01/19 09:18:46;;;;;;;6.18;1.38;;;;;;;1.80;100.00;100488.44;6218838;23;20013;-74
2023/01/19 09:21:13;;;;;;;8.90;2.05;;;;;;;1.88;100.00;100497.75;6217921;23;20017;-74
2023/01/19 09:23:40;;;;;;;9.57;2.00;;;;;;;1.93;100.00;100492.84;6219049;23;20013;-74
2023/01/19 09:26:06;;;;;;;10.00;1.60;;;;;;;1.95;100.00;100497.72;6218652;23;20021;-75
2023/01/19 09:28:33;;;;;;;5.80;1.50;;;;;;;1.97;100.00;100496.22;6192726;23;20455;-74
2023/01/19 09:31:05;;;;;;;4.97;1.45;;;;;;;1.99;100.00;100501.06;6191915;23;20039;-74
2023/01/19 09:33:33;;;;;;;4.90;1.13;;;;;;;1.98;100.00;100495.06;6219003;23;20088;-75
2023/01/19 09:36:00;;;;;;;13.15;1.92;;;;;;;1.99;100.00;100501.06;6218060;23;20399;-75
2023/01/19 09:38:30;;;;;;;5.85;1.08;;;;;;;2.00;100.00;100502.53;6220223;23;20024;-76
2023/01/19 09:40:58;;;;;;;3.78;0.95;;;;;;;2.04;100.00;100505.88;6220124;23;20009;-76
2023/01/19 09:43:36;;;;;;;8.00;1.60;;;;;;;2.08;100.00;100509.22;6220572;23;20435;-75
2023/01/19 09:46:10;;;;;;;7.75;1.45;;;;;;;2.15;100.00;100500.56;6219964;23;20474;-74
2023/01/19 09:48:52;;;;;;;3.13;1.38;;;;;;;2.21;100.00;100505.03;6220326;22;20109;-75
2023/01/19 09:51:33;;;;;;;6.13;1.35;;;;;;;2.28;100.00;100515.47;6220739;23;20024;-78
2023/01/19 09:54:14;;;;;;;6.80;1.20;;;;;;;2.33;100.00;100515.06;6220034;23;20017;-76
2023/01/19 09:56:46;;;;;;;6.60;1.45;;;;;;;2.38;100.00;100521.03;6220682;23;20229;-76
2023/01/19 09:59:23;;;;;;;;;;;;;;;2.40;100.00;100521.41;6220805;23;20013;-77
2023/01/19 10:02:18;;;;;;;7.82;1.95;;;;;;;2.44;100.00;100525.47;6220134;23;19927;-74
2023/01/19 10:05:09;;;;;;;8.50;1.35;;;;;;;2.50;100.00;100525.78;6219802;23;20018;-77
2023/01/19 10:07:35;;;;;;;5.70;1.08;;;;;;;2.55;100.00;100522.75;6220338;23;20025;-76
2023/01/19 10:10:24;;;;;;;6.10;1.27;;;;;;;2.57;100.00;100528.34;6220065;23;20085;-75
2023/01/19 10:12:51;;;;;;;7.90;1.20;;;;;;;2.61;100.00;100532.44;6219863;23;20014;-76
2023/01/19 10:16:13;;;;;;;9.50;1.38;;;;;;;2.65;100.00;100532.41;6220394;23;20451;-75
2023/01/19 10:18:50;;;;;;;6.35;1.10;;;;;;;2.70;100.00;100537.25;6098076;23;20094;-76
2023/01/19 10:21:21;;;;;;;7.57;1.30;;;;;;;2.74;100.00;100537.97;6098310;23;20396;-76
2023/01/19 10:24:00;;;;;;;8.25;1.92;;;;;;;2.79;100.00;100539.44;6098730;23;20029;-75
2023/01/19 10:26:37;;;;;;;6.30;1.10;;;;;;;2.83;100.00;100538.25;6098840;23;20110;-76
2023/01/19 10:29:07;;;;;;;9.30;1.80;;;;;;;2.88;100.00;100550.97;6098452;23;20027;-76
2023/01/19 10:31:38;;;;;;;8.00;2.15;;;;;;;2.92;100.00;100549.03;6098488;23;20488;-75
2023/01/19 10:34:05;;;;;;;8.00;1.48;;;;;;;2.97;100.00;100547.88;6097377;23;20109;-75
2023/01/19 10:36:37;;;;;;;6.05;1.23;;;;;;;2.99;100.00;100543.72;6098236;23;20107;-77
2023/01/19 10:39:05;;;;;;;9.90;1.77;;;;;;;3.04;100.00;100545.19;6097222;23;20027;-76
2023/01/19 10:41:43;;;;;;;7.15;1.33;;;;;;;3.11;99.63;100550.38;6098118;23;20019;-77
2023/01/19 10:44:10;;;;;;;3.47;1.25;;;;;;;3.15;98.37;100552.97;6098038;23;20025;-76
2023/01/19 10:46:42;;;;;;;1.33;0.60;;;;;;;3.15;97.58;100551.06;6097975;23;20069;-77
2023/01/19 10:49:41;;;;;;;4.95;1.10;;;;;;;3.18;97.53;100545.03;6108819;23;20099;-75
2023/01/19 10:52:22;;;;;;;2.67;1.10;;;;;;;3.23;96.58;100552.47;6139894;23;20024;-75
2023/01/19 10:54:49;;;;;;;17.60;1.60;;;;;;;3.28;95.80;100546.03;6219516;23;20040;-75
2023/01/19 10:57:26;;;;;;;3.85;1.02;;;;;;;3.32;94.89;100546.72;6193783;23;20091;-75
2023/01/19 10:59:53;;;;;;;1.83;0.77;;;;;;;3.36;94.43;100550.06;6219785;23;20412;-75
2023/01/19 11:02:27;;;;;;;5.72;1.17;;;;;;;3.40;93.70;100542.13;6219734;23;20021;-76
2023/01/19 11:04:59;;;;;;;3.97;0.90;;;;;;;3.44;92.39;100543.59;6219879;23;20447;-76
2023/01/19 11:07:31;;;;;;;4.32;0.93;;;;;;;3.53;92.45;100551.00;6220281;23;20441;-75
2023/01/19 11:10:16;;;;;;;4.22;0.88;;;;;;;3.59;92.55;100555.44;6220056;23;20027;-76
2023/01/19 11:12:52;;;;;;;7.20;0.98;;;;;;;3.61;91.45;100555.75;6220207;23;20036;-76
2023/01/19 11:15:29;;;;;;;1.48;0.80;;;;;;;3.63;91.99;100552.75;6220376;23;20020;-75
2023/01/19 11:17:55;;;;;;;6.97;1.10;;;;;;;3.65;90.58;100563.63;6219226;23;20017;-76
2023/01/19 11:20:27;;;;;;;4.15;0.75;;;;;;;3.67;89.51;100559.44;6220685;23;20021;-77
2023/01/19 11:23:13;;;;;;;4.95;1.20;;;;;;;3.71;88.83;100562.03;6219891;23;20028;-77
2023/01/19 11:25:45;;;;;;;4.38;1.08;;;;;;;3.69;88.02;100559.81;6220318;23;20398;-77
2023/01/19 11:28:21;;;;;;;7.10;1.75;;;;;;;3.64;88.34;100560.25;6219550;23;20426;-77
2023/01/19 11:30:58;;;;;;;12.02;3.08;;;;;;;3.60;87.42;100564.06;6192848;23;20477;-77
2023/01/19 11:33:33;;;;;;;7.30;3.70;;;;;;;3.56;87.40;100568.66;6220249;23;20013;-77
2023/01/19 11:36:15;;;;;;;4.13;1.77;;;;;;;3.59;86.95;100559.97;6219653;23;20017;-78
2023/01/19 11:38:44;;;;;;;3.13;1.13;;;;;;;3.63;85.71;100569.28;6219882;23;20013;-76
2023/01/19 11:41:25;;;;;;;9.75;5.05;;;;;;;3.65;85.81;100563.63;6219804;23;20017;-76
2023/01/19 11:43:59;;;;;;;10.55;3.95;;;;;;;3.67;83.75;100558.72;6192928;23;20020;-76
2023/01/19 11:46:31;;;;;;;7.60;2.33;;;;;;;3.69;83.84;100562.44;6219712;23;20017;-76
2023/01/19 11:49:03;;;;;;;9.82;3.72;;;;;;;3.70;83.02;100563.19;6219345;23;20060;-75